WIII/CGK METAR and TAF weather

Enter ICAO airport designator
Station Type Date Time Source
WIII METAR 2020/09/23 19:00 UTC NOAA

WIII 231900Z 23003KT 5000 HZ FEW020 24/21 Q1010 NOSIG


Station Type Date Time Source
WIII Decoded METAR 2020/09/23 19:00 UTC NOAA

Jakarta / Soekarno-Hatta, Indonesia (WIII) 06-07S 106-39E 8M
Sep 23, 2020 - 03:00 PM EDT / 2020.09.23 1900 UTC
Wind: from the SW (230 degrees) at 3 MPH (3 KT):0
Visibility: 3 mile(s):0
Sky conditions: mostly clear
Weather: haze
Temperature: 75 F (24 C)
Dew Point: 69 F (21 C)
Relative Humidity: 83%
Pressure (altimeter): 29.83 in. Hg (1010 hPa)
ob: WIII 231900Z 23003KT 5000 HZ FEW020 24/21 Q1010 NOSIG
cycle: 19

Station Type Date Time Source
WIII TAF 2020/09/23 18:39 UTC NOAA

TAF WIII 231700Z 2318/2424 22005KT 4000 BR SCT020
BECMG 2402/2404 02013KT 9000 NSW

Example: see airport list